KLM685 EHAM-CYVR
Flight info
| Callsign | KLM685 |
|---|---|
| Flight time | N/A |
| Altitude | 38000 |
| Route | ANDIK2N ANDIK DCT SUTEB DCT GIBSU DCT FORTY DCT MOCHA DCT PEMOS/M081F340 DCT 65N012W/M082F360 68N022W 70N035W 72N051W 71N067W/N0470F360 DCT 7082N/N0476F380 DCT 67N095W 64N104W DCT YSM J528 YQU DCT HEIRE Q800 ELIDI WHSLR8 |
| Aircraft | A333/H-SADE1E2E3GHIJ3J5M1P2RWXY/LB2D1 |
Departure
| Time | N/A |
|---|---|
| Airport | Amsterdam Airport Schiphol (EHAM) |
Arrival
| Time | 2026-05-05 20:02 |
|---|---|
| Airport | Vancouver International Airport (CYVR) |
| Time | Latitude | Longitude | Altitude | Speed | Heading |
|---|---|---|---|---|---|
| 2026-05-05 19:03 | 55.00914 | -119.20384 | 38167 ft | 500 kts | 218° |
| 2026-05-05 19:03 | 54.97933 | -119.23518 | 38167 ft | 500 kts | 218° |
| 2026-05-05 19:04 | 54.91978 | -119.29767 | 38171 ft | 500 kts | 218° |
| 2026-05-05 19:04 | 54.86043 | -119.35967 | 38171 ft | 501 kts | 218° |
| 2026-05-05 19:05 | 54.80061 | -119.42187 | 38166 ft | 501 kts | 218° |
| 2026-05-05 19:05 | 54.74083 | -119.48379 | 38157 ft | 500 kts | 218° |
| 2026-05-05 19:06 | 54.68098 | -119.54559 | 38157 ft | 500 kts | 218° |
| 2026-05-05 19:06 | 54.62115 | -119.60714 | 38145 ft | 500 kts | 218° |
| 2026-05-05 19:07 | 54.56126 | -119.66855 | 38135 ft | 501 kts | 218° |
| 2026-05-05 19:07 | 54.50143 | -119.72971 | 38138 ft | 500 kts | 217° |
| 2026-05-05 19:08 | 54.44179 | -119.79042 | 38146 ft | 500 kts | 217° |
| 2026-05-05 19:08 | 54.38183 | -119.85130 | 38142 ft | 500 kts | 217° |
| 2026-05-05 19:09 | 54.32178 | -119.91202 | 38141 ft | 500 kts | 217° |
| 2026-05-05 19:09 | 54.26175 | -119.97251 | 38142 ft | 500 kts | 217° |
| 2026-05-05 19:10 | 54.20181 | -120.03281 | 38147 ft | 501 kts | 217° |
| 2026-05-05 19:10 | 54.14209 | -120.09254 | 38129 ft | 499 kts | 217° |
| 2026-05-05 19:11 | 54.08206 | -120.15237 | 38137 ft | 499 kts | 217° |
| 2026-05-05 19:11 | 54.02205 | -120.21203 | 38131 ft | 499 kts | 217° |
| 2026-05-05 19:12 | 53.96222 | -120.27136 | 38136 ft | 499 kts | 217° |
| 2026-05-05 19:12 | 53.90219 | -120.33063 | 38119 ft | 498 kts | 216° |
| 2026-05-05 19:13 | 53.84230 | -120.38954 | 38153 ft | 497 kts | 216° |
| 2026-05-05 19:13 | 53.78258 | -120.44827 | 38118 ft | 499 kts | 216° |
| 2026-05-05 19:14 | 53.72250 | -120.50696 | 38116 ft | 500 kts | 216° |
| 2026-05-05 19:14 | 53.66242 | -120.56544 | 38106 ft | 499 kts | 216° |
| 2026-05-05 19:15 | 53.60227 | -120.62389 | 38091 ft | 498 kts | 216° |
| 2026-05-05 19:15 | 53.54218 | -120.68207 | 38093 ft | 498 kts | 216° |
| 2026-05-05 19:16 | 53.48204 | -120.74007 | 38093 ft | 498 kts | 216° |
| 2026-05-05 19:16 | 53.42191 | -120.79788 | 38089 ft | 498 kts | 216° |
| 2026-05-05 19:17 | 53.36172 | -120.85556 | 38088 ft | 498 kts | 216° |
| 2026-05-05 19:17 | 53.30174 | -120.91280 | 38076 ft | 496 kts | 216° |
| 2026-05-05 19:18 | 53.24190 | -120.96975 | 38067 ft | 495 kts | 216° |
| 2026-05-05 19:18 | 53.18194 | -121.02677 | 38062 ft | 496 kts | 215° |
| 2026-05-05 19:19 | 53.12186 | -121.08365 | 38063 ft | 497 kts | 215° |
| 2026-05-05 19:19 | 53.06195 | -121.14014 | 38078 ft | 497 kts | 215° |
| 2026-05-05 19:20 | 53.00139 | -121.19707 | 38066 ft | 497 kts | 215° |
| 2026-05-05 19:20 | 52.94143 | -121.25325 | 38062 ft | 497 kts | 215° |
| 2026-05-05 19:21 | 52.88124 | -121.30946 | 38048 ft | 496 kts | 215° |
| 2026-05-05 19:21 | 52.82097 | -121.36550 | 38058 ft | 496 kts | 215° |
| 2026-05-05 19:22 | 52.76079 | -121.42140 | 38056 ft | 496 kts | 215° |
| 2026-05-05 19:22 | 52.70061 | -121.47698 | 38056 ft | 496 kts | 215° |
| 2026-05-05 19:23 | 52.64036 | -121.53258 | 38053 ft | 496 kts | 215° |
| 2026-05-05 19:23 | 52.58009 | -121.58802 | 38054 ft | 496 kts | 214° |
| 2026-05-05 19:24 | 52.51985 | -121.64322 | 38055 ft | 495 kts | 214° |
| 2026-05-05 19:24 | 52.45955 | -121.69831 | 38054 ft | 495 kts | 214° |
| 2026-05-05 19:25 | 52.39966 | -121.75283 | 38047 ft | 495 kts | 214° |
| 2026-05-05 19:25 | 52.33939 | -121.80753 | 38050 ft | 495 kts | 214° |
| 2026-05-05 19:26 | 52.27907 | -121.86211 | 38053 ft | 495 kts | 214° |
| 2026-05-05 19:26 | 52.21901 | -121.91629 | 38056 ft | 495 kts | 214° |
| 2026-05-05 19:27 | 52.15854 | -121.97066 | 38056 ft | 494 kts | 214° |
| 2026-05-05 19:27 | 52.10844 | -122.01557 | 38045 ft | 494 kts | 214° |
| 2026-05-05 19:28 | 52.04818 | -122.06944 | 38049 ft | 494 kts | 214° |
| 2026-05-05 19:28 | 51.98792 | -122.12313 | 38042 ft | 494 kts | 214° |
| 2026-05-05 19:29 | 51.92764 | -122.17669 | 38051 ft | 494 kts | 214° |
| 2026-05-05 19:29 | 51.86733 | -122.23011 | 38049 ft | 493 kts | 214° |
| 2026-05-05 19:30 | 51.80708 | -122.28331 | 38033 ft | 493 kts | 213° |
| 2026-05-05 19:30 | 51.74727 | -122.33595 | 38025 ft | 493 kts | 213° |
| 2026-05-05 19:31 | 51.68693 | -122.38889 | 38020 ft | 493 kts | 213° |
| 2026-05-05 19:31 | 51.62666 | -122.44160 | 38018 ft | 493 kts | 213° |
| 2026-05-05 19:32 | 51.56637 | -122.49416 | 38016 ft | 493 kts | 213° |
| 2026-05-05 19:32 | 51.50638 | -122.54633 | 38020 ft | 493 kts | 213° |
| 2026-05-05 19:33 | 51.44614 | -122.59853 | 38015 ft | 492 kts | 213° |
| 2026-05-05 19:33 | 51.38594 | -122.65060 | 38018 ft | 491 kts | 213° |
| 2026-05-05 19:34 | 51.32570 | -122.70252 | 38017 ft | 491 kts | 213° |
| 2026-05-05 19:35 | 51.23539 | -122.78005 | 38017 ft | 491 kts | 213° |
| 2026-05-05 19:35 | 51.17514 | -122.83159 | 38025 ft | 491 kts | 213° |
| 2026-05-05 19:36 | 51.11491 | -122.88296 | 38014 ft | 491 kts | 213° |
| 2026-05-05 19:36 | 51.05504 | -122.93388 | 38017 ft | 491 kts | 213° |
| 2026-05-05 19:37 | 50.99479 | -122.98504 | 38017 ft | 490 kts | 213° |
| 2026-05-05 19:37 | 50.96474 | -123.01049 | 37915 ft | 488 kts | 212° |
| 2026-05-05 19:37 | 50.93478 | -123.03582 | 37427 ft | 487 kts | 212° |
| 2026-05-05 19:37 | 50.90465 | -123.06071 | 36697 ft | 490 kts | 210° |
| 2026-05-05 19:38 | 50.87320 | -123.08234 | 35811 ft | 496 kts | 204° |
| 2026-05-05 19:38 | 50.84094 | -123.10209 | 34787 ft | 498 kts | 205° |
| 2026-05-05 19:38 | 50.80863 | -123.12218 | 33602 ft | 501 kts | 205° |
| 2026-05-05 19:38 | 50.77607 | -123.14256 | 32221 ft | 505 kts | 204° |
| 2026-05-05 19:39 | 50.74334 | -123.16305 | 30861 ft | 507 kts | 204° |
| 2026-05-05 19:39 | 50.71044 | -123.18361 | 29517 ft | 508 kts | 204° |
| 2026-05-05 19:39 | 50.67776 | -123.20397 | 28480 ft | 502 kts | 204° |
| 2026-05-05 19:39 | 50.64544 | -123.22406 | 27624 ft | 497 kts | 204° |
| 2026-05-05 19:40 | 50.62013 | -123.23978 | 27065 ft | 492 kts | 204° |
| 2026-05-05 19:40 | 50.58848 | -123.25941 | 26335 ft | 488 kts | 204° |
| 2026-05-05 19:40 | 50.55704 | -123.27888 | 25666 ft | 483 kts | 204° |
| 2026-05-05 19:40 | 50.52592 | -123.29813 | 24975 ft | 478 kts | 204° |
| 2026-05-05 19:41 | 50.49501 | -123.31724 | 24273 ft | 474 kts | 204° |
| 2026-05-05 19:41 | 50.46486 | -123.33586 | 23641 ft | 470 kts | 204° |
| 2026-05-05 19:41 | 50.43460 | -123.35452 | 22989 ft | 463 kts | 204° |
| 2026-05-05 19:41 | 50.40493 | -123.37277 | 22487 ft | 453 kts | 204° |
| 2026-05-05 19:42 | 50.37593 | -123.39059 | 21946 ft | 444 kts | 204° |
| 2026-05-05 19:42 | 50.34739 | -123.40810 | 21419 ft | 436 kts | 204° |
| 2026-05-05 19:42 | 50.31934 | -123.42528 | 20888 ft | 429 kts | 204° |
| 2026-05-05 19:42 | 50.29184 | -123.44213 | 20380 ft | 421 kts | 204° |
| 2026-05-05 19:43 | 50.26477 | -123.45868 | 19871 ft | 413 kts | 204° |
| 2026-05-05 19:43 | 50.23827 | -123.47487 | 19361 ft | 406 kts | 204° |
| 2026-05-05 19:43 | 50.21219 | -123.49079 | 18862 ft | 398 kts | 204° |
| 2026-05-05 19:43 | 50.18650 | -123.50647 | 18379 ft | 393 kts | 204° |
| 2026-05-05 19:44 | 50.16122 | -123.52187 | 17854 ft | 387 kts | 204° |
| 2026-05-05 19:44 | 50.13639 | -123.53699 | 17389 ft | 380 kts | 204° |
| 2026-05-05 19:44 | 50.11190 | -123.55185 | 16925 ft | 376 kts | 204° |
| 2026-05-05 19:44 | 50.08665 | -123.56723 | 16439 ft | 404 kts | 204° |
| 2026-05-05 19:45 | 50.05998 | -123.58353 | 15920 ft | 416 kts | 203° |
| 2026-05-05 19:45 | 50.03299 | -123.59990 | 15398 ft | 416 kts | 203° |
| 2026-05-05 19:45 | 50.00615 | -123.61611 | 14886 ft | 411 kts | 202° |
| 2026-05-05 19:45 | 49.97981 | -123.63209 | 14375 ft | 402 kts | 203° |
| 2026-05-05 19:46 | 49.95404 | -123.64787 | 13786 ft | 395 kts | 203° |
| 2026-05-05 19:46 | 49.92870 | -123.66349 | 13178 ft | 386 kts | 203° |
| 2026-05-05 19:46 | 49.90723 | -123.67674 | 12868 ft | 374 kts | 203° |
| 2026-05-05 19:46 | 49.88487 | -123.69048 | 12491 ft | 364 kts | 203° |
| 2026-05-05 19:47 | 49.86195 | -123.70459 | 12305 ft | 345 kts | 203° |
| 2026-05-05 19:47 | 49.84004 | -123.71744 | 12134 ft | 329 kts | 198° |
| 2026-05-05 19:47 | 49.81811 | -123.72096 | 11976 ft | 315 kts | 175° |
| 2026-05-05 19:47 | 49.79767 | -123.71188 | 11812 ft | 300 kts | 152° |
| 2026-05-05 19:48 | 49.78111 | -123.69269 | 11466 ft | 291 kts | 136° |
| 2026-05-05 19:48 | 49.76736 | -123.67112 | 11199 ft | 282 kts | 133° |
| 2026-05-05 19:48 | 49.75345 | -123.64878 | 10972 ft | 287 kts | 134° |
| 2026-05-05 19:48 | 49.73937 | -123.62737 | 10727 ft | 281 kts | 136° |
| 2026-05-05 19:49 | 49.72522 | -123.60714 | 10503 ft | 282 kts | 137° |
| 2026-05-05 19:49 | 49.71535 | -123.59343 | 10339 ft | 283 kts | 137° |
| 2026-05-05 19:49 | 49.69577 | -123.56668 | 10029 ft | 278 kts | 138° |
| 2026-05-05 19:49 | 49.68125 | -123.54697 | 9818 ft | 277 kts | 138° |
| 2026-05-05 19:50 | 49.66693 | -123.52752 | 9712 ft | 279 kts | 138° |
| 2026-05-05 19:50 | 49.65238 | -123.50777 | 9507 ft | 279 kts | 139° |
| 2026-05-05 19:50 | 49.63765 | -123.48779 | 9162 ft | 277 kts | 139° |
| 2026-05-05 19:50 | 49.62335 | -123.46909 | 8991 ft | 273 kts | 145° |
| 2026-05-05 19:51 | 49.60604 | -123.45715 | 8898 ft | 274 kts | 169° |
| 2026-05-05 19:51 | 49.58722 | -123.45364 | 8796 ft | 273 kts | 175° |
| 2026-05-05 19:51 | 49.56805 | -123.45067 | 8651 ft | 273 kts | 175° |
| 2026-05-05 19:51 | 49.54945 | -123.44741 | 8306 ft | 273 kts | 175° |
| 2026-05-05 19:52 | 49.53066 | -123.44404 | 7818 ft | 271 kts | 175° |
| 2026-05-05 19:52 | 49.51200 | -123.44067 | 7328 ft | 269 kts | 175° |
| 2026-05-05 19:52 | 49.49346 | -123.43729 | 6834 ft | 267 kts | 175° |
| 2026-05-05 19:52 | 49.47500 | -123.43390 | 6329 ft | 266 kts | 174° |
| 2026-05-05 19:53 | 49.45670 | -123.43088 | 5796 ft | 263 kts | 179° |
| 2026-05-05 19:53 | 49.43862 | -123.43313 | 5291 ft | 259 kts | 192° |
| 2026-05-05 19:53 | 49.42095 | -123.43812 | 4793 ft | 257 kts | 191° |
| 2026-05-05 19:53 | 49.40361 | -123.44313 | 4467 ft | 248 kts | 193° |
| 2026-05-05 19:54 | 49.38727 | -123.45074 | 4335 ft | 249 kts | 202° |
| 2026-05-05 19:54 | 49.37225 | -123.46095 | 4218 ft | 248 kts | 206° |
| 2026-05-05 19:54 | 49.35667 | -123.47204 | 4094 ft | 246 kts | 207° |
| 2026-05-05 19:54 | 49.34203 | -123.48556 | 3970 ft | 245 kts | 216° |
| 2026-05-05 19:55 | 49.32805 | -123.50052 | 3844 ft | 245 kts | 216° |
| 2026-05-05 19:55 | 49.31412 | -123.51548 | 3723 ft | 245 kts | 216° |
| 2026-05-05 19:55 | 49.30024 | -123.53043 | 3586 ft | 244 kts | 216° |
| 2026-05-05 19:55 | 49.28578 | -123.54395 | 3460 ft | 244 kts | 201° |
| 2026-05-05 19:56 | 49.26933 | -123.54970 | 3351 ft | 240 kts | 186° |
| 2026-05-05 19:56 | 49.25324 | -123.54942 | 3194 ft | 227 kts | 165° |
| 2026-05-05 19:56 | 49.24071 | -123.53709 | 3085 ft | 218 kts | 128° |
| 2026-05-05 19:56 | 49.23588 | -123.51568 | 3010 ft | 209 kts | 90° |
| 2026-05-05 19:57 | 49.23647 | -123.49359 | 3004 ft | 211 kts | 89° |
| 2026-05-05 19:57 | 49.23622 | -123.47846 | 2989 ft | 211 kts | 94° |
| 2026-05-05 19:57 | 49.23357 | -123.44913 | 3008 ft | 208 kts | 101° |
| 2026-05-05 19:57 | 49.23098 | -123.42819 | 2972 ft | 195 kts | 99° |
| 2026-05-05 19:58 | 49.22877 | -123.40809 | 2791 ft | 189 kts | 100° |
| 2026-05-05 19:58 | 49.22650 | -123.38841 | 2517 ft | 186 kts | 100° |
| 2026-05-05 19:58 | 49.22435 | -123.36936 | 2259 ft | 175 kts | 101° |
| 2026-05-05 19:58 | 49.22233 | -123.35167 | 2037 ft | 163 kts | 101° |
| 2026-05-05 19:59 | 49.22042 | -123.33486 | 1820 ft | 157 kts | 101° |
| 2026-05-05 19:59 | 49.21864 | -123.31926 | 1610 ft | 141 kts | 101° |
| 2026-05-05 19:59 | 49.21733 | -123.30769 | 1475 ft | 145 kts | 101° |
| 2026-05-05 19:59 | 49.21559 | -123.29257 | 1261 ft | 139 kts | 101° |
| 2026-05-05 20:00 | 49.21391 | -123.27766 | 1070 ft | 145 kts | 101° |
| 2026-05-05 20:00 | 49.21225 | -123.26300 | 864 ft | 140 kts | 101° |
| 2026-05-05 20:00 | 49.21059 | -123.24834 | 670 ft | 137 kts | 101° |
| 2026-05-05 20:00 | 49.20882 | -123.23326 | 483 ft | 146 kts | 101° |
| 2026-05-05 20:01 | 49.20722 | -123.21856 | 253 ft | 136 kts | 99° |
| 2026-05-05 20:01 | 49.20556 | -123.20387 | 102 ft | 144 kts | 101° |
| 2026-05-05 20:01 | 49.20392 | -123.18969 | 32 ft | 127 kts | 100° |
| 2026-05-05 20:01 | 49.20272 | -123.17939 | 30 ft | 67 kts | 100° |
| 2026-05-05 20:02 | 49.20213 | -123.17412 | 30 ft | 38 kts | 99° |
| 2026-05-05 20:02 | 49.20176 | -123.17123 | 30 ft | 25 kts | 105° |
| 2026-05-05 20:02 | 49.20116 | -123.16925 | 31 ft | 16 kts | 122° |
| 2026-05-05 20:02 | 49.20048 | -123.16789 | 31 ft | 16 kts | 130° |
| 2026-05-05 20:03 | 49.19982 | -123.16668 | 31 ft | 14 kts | 130° |
| 2026-05-05 20:03 | 49.19924 | -123.16639 | 31 ft | 8 kts | 205° |
| 2026-05-05 20:03 | 49.19918 | -123.16706 | 31 ft | 8 kts | 275° |
| 2026-05-05 20:03 | 49.19930 | -123.16818 | 31 ft | 13 kts | 280° |
| 2026-05-05 20:04 | 49.19947 | -123.16959 | 31 ft | 14 kts | 280° |
| 2026-05-05 20:04 | 49.19965 | -123.17120 | 31 ft | 16 kts | 280° |
| 2026-05-05 20:04 | 49.19986 | -123.17299 | 31 ft | 18 kts | 279° |
| 2026-05-05 20:04 | 49.20007 | -123.17493 | 31 ft | 19 kts | 279° |
| 2026-05-05 20:05 | 49.20027 | -123.17665 | 31 ft | 13 kts | 280° |
| 2026-05-05 20:05 | 49.20038 | -123.17778 | 31 ft | 8 kts | 271° |
| 2026-05-05 20:05 | 49.20007 | -123.17850 | 31 ft | 9 kts | 229° |
| 2026-05-05 20:05 | 49.19965 | -123.17887 | 31 ft | 6 kts | 205° |
| 2026-05-05 20:06 | 49.19928 | -123.17912 | 31 ft | 6 kts | 204° |
| 2026-05-05 20:06 | 49.19909 | -123.17924 | 31 ft | 2 kts | 202° |
| 2026-05-05 20:06 | 49.19901 | -123.17929 | 31 ft | 1 kts | 202° |
| 2026-05-05 20:06 | 49.19901 | -123.17930 | 31 ft | 0 kts | 202° |